createdAt,value
2018-12-09T00:00:23.297Z,9.60
2018-12-09T00:02:50.751Z,9.50
2018-12-09T00:05:18.215Z,9.50
2018-12-09T00:07:45.677Z,9.60
2018-12-09T00:10:13.138Z,9.60
2018-12-09T00:12:40.614Z,9.60
2018-12-09T00:15:08.849Z,9.60
2018-12-09T00:17:36.310Z,9.50
2018-12-09T00:20:03.781Z,9.60
2018-12-09T00:22:31.281Z,9.70
2018-12-09T00:24:58.748Z,9.70
2018-12-09T00:27:26.210Z,9.70
2018-12-09T00:29:53.671Z,9.70
2018-12-09T00:32:21.149Z,9.70
2018-12-09T00:34:49.399Z,9.60
2018-12-09T00:37:16.860Z,9.60
2018-12-09T00:39:44.435Z,9.60
2018-12-09T00:42:11.883Z,9.70
2018-12-09T00:44:39.358Z,9.70
2018-12-09T00:47:06.834Z,9.70
2018-12-09T00:49:35.136Z,9.60
2018-12-09T00:52:03.527Z,9.60
2018-12-09T00:54:31.757Z,9.60
2018-12-09T00:56:59.226Z,9.60
2018-12-09T00:59:26.688Z,9.70
2018-12-09T01:01:54.260Z,9.70
2018-12-09T01:04:21.715Z,9.70
2018-12-09T01:06:49.482Z,9.80
2018-12-09T01:09:16.940Z,9.70
2018-12-09T01:11:44.390Z,9.70
2018-12-09T01:14:11.876Z,9.60
2018-12-09T01:16:39.344Z,9.60
2018-12-09T01:19:06.810Z,9.50
2018-12-09T01:21:35.041Z,9.60
2018-12-09T01:24:02.499Z,9.60
2018-12-09T01:26:29.975Z,9.50
2018-12-09T01:28:57.445Z,9.50
2018-12-09T01:31:26.411Z,9.50
2018-12-09T01:33:53.866Z,9.50
2018-12-09T01:36:21.340Z,9.40
2018-12-09T01:38:48.793Z,9.30
2018-12-09T01:41:16.252Z,9.20
2018-12-09T01:43:43.719Z,9.10
2018-12-09T01:46:11.194Z,9.10
2018-12-09T01:48:38.656Z,9.20
2018-12-09T01:51:06.119Z,9.10
2018-12-09T01:53:45.386Z,9.10
2018-12-09T01:56:12.867Z,9.00
2018-12-09T01:58:41.094Z,9.00
2018-12-09T02:01:08.569Z,9.00
2018-12-09T02:03:36.061Z,9.00
2018-12-09T02:06:03.868Z,9.00
2018-12-09T02:08:31.369Z,9.00
2018-12-09T02:10:59.618Z,9.00
2018-12-09T02:13:27.093Z,9.00
2018-12-09T02:15:54.575Z,9.00
2018-12-09T02:18:22.849Z,9.10
2018-12-09T02:20:51.826Z,9.10
2018-12-09T02:23:20.052Z,9.10
2018-12-09T02:25:48.297Z,9.10
2018-12-09T02:28:15.863Z,9.10
2018-12-09T02:30:43.368Z,9.20
2018-12-09T02:33:10.788Z,9.20
2018-12-09T02:35:38.250Z,9.20
2018-12-09T02:38:05.722Z,9.30
2018-12-09T02:40:33.284Z,9.30
2018-12-09T02:43:00.851Z,9.20
2018-12-09T02:45:29.101Z,9.30
2018-12-09T02:47:56.570Z,9.30
2018-12-09T02:50:24.253Z,9.30
2018-12-09T02:52:51.710Z,9.30
2018-12-09T02:55:19.181Z,9.30
2018-12-09T02:57:46.741Z,9.30
2018-12-09T03:00:14.189Z,9.40
2018-12-09T03:02:41.655Z,9.30
2018-12-09T03:05:09.131Z,9.40
2018-12-09T03:07:37.352Z,9.30
2018-12-09T03:10:04.810Z,9.30
2018-12-09T03:12:32.325Z,9.30
2018-12-09T03:14:59.875Z,9.30
2018-12-09T03:17:27.335Z,9.20
2018-12-09T03:19:54.808Z,9.20
2018-12-09T03:22:22.371Z,9.20
2018-12-09T03:24:49.827Z,9.20
2018-12-09T03:27:17.287Z,9.10
2018-12-09T03:29:44.754Z,9.20
2018-12-09T03:32:12.224Z,9.20
2018-12-09T03:34:39.684Z,9.10
2018-12-09T03:37:07.163Z,9.10
2018-12-09T03:39:34.624Z,9.10
2018-12-09T03:42:02.159Z,9.10
2018-12-09T03:44:29.626Z,9.20
2018-12-09T03:46:57.095Z,9.20
2018-12-09T03:49:26.083Z,9.20
2018-12-09T03:51:53.549Z,9.20
2018-12-09T03:54:21.130Z,9.30
2018-12-09T03:56:48.671Z,9.30
2018-12-09T03:59:16.145Z,9.30
2018-12-09T04:01:43.623Z,9.40
2018-12-09T04:04:11.095Z,9.50
2018-12-09T04:06:39.310Z,9.40
2018-12-09T04:09:06.770Z,9.40
2018-12-09T04:11:34.280Z,9.40
2018-12-09T04:14:01.736Z,9.40
2018-12-09T04:16:29.203Z,9.40
2018-12-09T04:18:56.766Z,9.40
2018-12-09T04:21:24.230Z,9.30
2018-12-09T04:23:51.691Z,9.30
2018-12-09T04:26:19.158Z,9.20
2018-12-09T04:28:46.617Z,9.10
2018-12-09T04:31:14.082Z,9.10
2018-12-09T04:33:41.637Z,9.10
2018-12-09T04:36:09.096Z,9.10
2018-12-09T04:38:38.057Z,9.20
2018-12-09T04:41:05.528Z,9.20
2018-12-09T04:43:33.000Z,9.20
2018-12-09T04:46:00.465Z,9.20
2018-12-09T04:48:27.936Z,9.20
2018-12-09T04:50:55.413Z,9.20
2018-12-09T04:53:23.650Z,9.30
2018-12-09T04:55:51.138Z,9.30
2018-12-09T04:58:18.903Z,9.30
2018-12-09T05:00:53.914Z,9.30
2018-12-09T05:03:21.401Z,9.20
2018-12-09T05:05:48.867Z,9.20
2018-12-09T05:08:16.330Z,9.20
2018-12-09T05:10:43.894Z,9.20
2018-12-09T05:13:11.353Z,9.20
2018-12-09T05:15:38.809Z,9.20
2018-12-09T05:18:06.275Z,9.20
2018-12-09T05:20:33.832Z,9.20
2018-12-09T05:23:01.408Z,9.30
2018-12-09T05:25:28.969Z,9.30
2018-12-09T05:27:56.417Z,9.20
2018-12-09T05:30:23.964Z,9.10
2018-12-09T05:32:51.458Z,9.10
2018-12-09T05:35:18.922Z,9.10
2018-12-09T05:37:46.478Z,9.10
2018-12-09T05:40:13.931Z,9.10
2018-12-09T05:42:41.506Z,9.10
2018-12-09T05:45:09.070Z,9.10
2018-12-09T05:47:36.565Z,9.10
2018-12-09T05:50:04.791Z,9.20
2018-12-09T05:52:32.255Z,9.10
2018-12-09T05:54:59.717Z,9.00
2018-12-09T05:57:27.187Z,8.90
2018-12-09T05:59:54.651Z,8.90
2018-12-09T06:02:45.945Z,8.80
2018-12-09T06:05:13.422Z,9.00
2018-12-09T06:07:40.990Z,9.00
2018-12-09T06:10:08.447Z,9.00
2018-12-09T06:12:36.019Z,9.00
2018-12-09T06:15:04.660Z,9.00
2018-12-09T06:17:32.126Z,9.00
2018-12-09T06:19:59.635Z,9.00
2018-12-09T06:22:27.201Z,9.10
2018-12-09T06:24:56.187Z,9.10
2018-12-09T06:27:23.665Z,9.10
2018-12-09T06:29:51.174Z,9.10
2018-12-09T06:32:18.630Z,9.20
2018-12-09T06:34:46.142Z,9.20
2018-12-09T06:37:13.608Z,9.20
2018-12-09T06:39:41.072Z,9.20
2018-12-09T06:42:08.627Z,9.10
2018-12-09T06:44:36.872Z,9.00
2018-12-09T06:47:04.525Z,9.00
2018-12-09T06:49:31.983Z,9.00
2018-12-09T06:51:59.445Z,9.00
2018-12-09T06:54:26.918Z,9.10
2018-12-09T06:56:54.359Z,9.00
2018-12-09T06:59:21.839Z,9.00
2018-12-09T07:01:49.290Z,9.00
2018-12-09T07:04:16.767Z,8.90
2018-12-09T07:06:44.224Z,8.90
2018-12-09T07:09:11.727Z,8.90
2018-12-09T07:11:39.218Z,8.90
2018-12-09T07:14:06.685Z,9.00
2018-12-09T07:16:34.931Z,9.00
2018-12-09T07:19:02.501Z,9.00
2018-12-09T07:21:30.055Z,9.00
2018-12-09T07:23:57.529Z,9.00
2018-12-09T07:26:25.807Z,8.90
2018-12-09T07:28:53.268Z,8.90
2018-12-09T07:31:20.711Z,8.80
2018-12-09T07:33:48.187Z,8.80
2018-12-09T07:36:16.764Z,8.40
2018-12-09T07:38:44.330Z,8.40
2018-12-09T07:41:11.895Z,8.20
2018-12-09T07:43:39.475Z,7.90
2018-12-09T07:46:08.459Z,7.70
2018-12-09T07:48:36.683Z,7.70
2018-12-09T07:51:04.149Z,7.60
2018-12-09T07:53:31.682Z,7.60
2018-12-09T07:55:59.130Z,7.60
2018-12-09T07:58:26.961Z,7.60
2018-12-09T08:00:54.415Z,7.60
2018-12-09T08:03:21.873Z,7.60
2018-12-09T08:05:49.391Z,7.70
2018-12-09T08:08:16.854Z,7.70
2018-12-09T08:10:44.303Z,7.80
2018-12-09T08:13:11.769Z,7.90
2018-12-09T08:15:39.232Z,7.90
2018-12-09T08:18:06.697Z,7.90
2018-12-09T08:20:34.156Z,7.90
2018-12-09T08:23:01.622Z,7.90
2018-12-09T08:25:29.087Z,7.90
2018-12-09T08:27:56.559Z,8.00
2018-12-09T08:30:24.101Z,8.00
2018-12-09T08:32:51.683Z,7.90
2018-12-09T08:35:19.140Z,7.90
2018-12-09T08:37:47.387Z,7.90
2018-12-09T08:40:14.872Z,7.90
2018-12-09T08:42:42.445Z,7.90
2018-12-09T08:45:10.863Z,7.90
2018-12-09T08:47:38.252Z,7.90
2018-12-09T08:50:05.708Z,8.00
2018-12-09T08:52:33.218Z,8.00
2018-12-09T08:55:00.665Z,8.10
2018-12-09T08:57:28.126Z,8.10
2018-12-09T08:59:55.697Z,8.10
2018-12-09T09:02:23.154Z,8.10
2018-12-09T09:04:50.611Z,8.20
2018-12-09T09:07:18.910Z,8.20
2018-12-09T09:09:46.458Z,8.20
2018-12-09T09:12:13.927Z,8.20
2018-12-09T09:14:42.912Z,8.20
2018-12-09T09:17:10.374Z,8.20
2018-12-09T09:19:37.841Z,8.20
2018-12-09T09:22:05.304Z,8.00
2018-12-09T09:24:32.863Z,7.80
2018-12-09T09:27:00.330Z,7.80
2018-12-09T09:29:27.807Z,7.70
2018-12-09T09:31:56.068Z,7.70
2018-12-09T09:34:23.566Z,7.60
2018-12-09T09:36:52.042Z,7.70
2018-12-09T09:39:20.282Z,7.70
2018-12-09T09:41:48.596Z,7.70
2018-12-09T09:44:16.857Z,7.60
2018-12-09T09:46:44.314Z,7.60
2018-12-09T09:49:11.790Z,7.50
2018-12-09T09:51:39.292Z,7.50
2018-12-09T09:54:06.741Z,7.50
2018-12-09T09:56:35.015Z,7.50
2018-12-09T09:59:04.173Z,7.50
2018-12-09T10:01:31.661Z,7.50
2018-12-09T10:03:59.159Z,7.50
2018-12-09T10:06:26.652Z,7.60
2018-12-09T10:08:54.173Z,7.60
2018-12-09T10:11:22.424Z,7.80
2018-12-09T10:13:49.921Z,7.80
2018-12-09T10:16:17.447Z,7.90
2018-12-09T10:18:45.825Z,8.00
2018-12-09T10:21:13.313Z,8.10
2018-12-09T10:23:41.537Z,8.20
2018-12-09T10:26:09.134Z,8.20
2018-12-09T10:28:36.704Z,8.20
2018-12-09T10:31:04.869Z,8.30
2018-12-09T10:33:32.383Z,8.20
2018-12-09T10:35:59.904Z,8.30
2018-12-09T10:38:27.358Z,8.50
2018-12-09T10:40:54.827Z,8.60
2018-12-09T10:43:23.128Z,8.50
2018-12-09T10:45:51.388Z,8.60
2018-12-09T10:48:18.941Z,8.50
2018-12-09T10:50:46.420Z,8.50
2018-12-09T10:53:13.884Z,8.50
2018-12-09T10:55:42.894Z,8.40
2018-12-09T10:58:11.142Z,8.40
2018-12-09T11:00:45.435Z,8.40
2018-12-09T11:03:12.897Z,8.40
2018-12-09T11:05:40.420Z,8.40
2018-12-09T11:08:08.647Z,8.50
2018-12-09T11:10:36.109Z,8.50
2018-12-09T11:13:04.098Z,8.60
2018-12-09T11:15:31.651Z,8.60
2018-12-09T11:17:59.105Z,8.60
2018-12-09T11:20:26.571Z,8.60
2018-12-09T11:22:54.049Z,8.70
2018-12-09T11:25:21.611Z,8.80
2018-12-09T11:27:49.079Z,8.90
2018-12-09T11:30:18.043Z,9.00
2018-12-09T11:32:45.501Z,9.00
2018-12-09T11:35:12.959Z,9.00
2018-12-09T11:37:40.419Z,9.00
2018-12-09T11:40:07.872Z,8.90
2018-12-09T11:42:35.341Z,8.90
2018-12-09T11:45:03.705Z,8.90
2018-12-09T11:47:31.173Z,8.90
2018-12-09T11:49:58.643Z,8.90
2018-12-09T11:52:26.096Z,8.90
2018-12-09T11:54:53.600Z,8.80
2018-12-09T11:57:21.165Z,8.90
2018-12-09T11:59:50.590Z,8.90
2018-12-09T12:02:20.100Z,8.90
2018-12-09T12:04:46.278Z,8.90
2018-12-09T12:07:13.750Z,8.90
2018-12-09T12:09:41.245Z,8.90
2018-12-09T12:12:08.694Z,9.00
2018-12-09T12:14:36.159Z,9.00
2018-12-09T12:17:04.653Z,9.20
2018-12-09T12:19:32.111Z,9.20
2018-12-09T12:21:59.595Z,9.20
2018-12-09T12:24:27.069Z,9.20
2018-12-09T12:26:55.287Z,9.10
2018-12-09T12:29:22.756Z,9.10
2018-12-09T12:31:50.224Z,9.00
2018-12-09T12:34:17.678Z,9.00
2018-12-09T12:36:45.156Z,8.90
2018-12-09T12:39:12.608Z,9.00
2018-12-09T12:41:40.096Z,9.00
2018-12-09T12:44:07.558Z,9.10
2018-12-09T12:46:35.116Z,9.00
2018-12-09T12:49:02.683Z,9.20
2018-12-09T12:51:31.142Z,9.30
2018-12-09T12:53:58.615Z,9.30
2018-12-09T12:56:26.073Z,9.30
2018-12-09T12:58:53.652Z,9.30
2018-12-09T13:01:21.097Z,9.10
2018-12-09T13:03:48.574Z,9.00
2018-12-09T13:06:16.804Z,8.80
2018-12-09T13:08:44.272Z,8.70
2018-12-09T13:11:11.728Z,8.80
2018-12-09T13:13:39.229Z,8.80
2018-12-09T13:16:06.694Z,8.80
2018-12-09T13:18:34.174Z,8.90
2018-12-09T13:21:01.719Z,8.90
2018-12-09T13:23:29.188Z,8.90
2018-12-09T13:25:56.747Z,8.90
2018-12-09T13:28:24.208Z,8.80
2018-12-09T13:30:51.728Z,8.60
2018-12-09T13:33:19.176Z,8.40
2018-12-09T13:35:47.381Z,8.20
2018-12-09T13:38:14.878Z,8.20
2018-12-09T13:40:42.403Z,8.20
2018-12-09T13:43:09.856Z,8.20
2018-12-09T13:45:37.360Z,8.30
2018-12-09T13:48:04.808Z,8.30
2018-12-09T13:50:32.290Z,8.40
2018-12-09T13:53:00.515Z,8.50
2018-12-09T13:55:27.966Z,8.50
2018-12-09T13:57:56.191Z,8.70
2018-12-09T14:00:23.660Z,8.70
2018-12-09T14:02:51.133Z,8.70
2018-12-09T14:05:18.602Z,8.70
2018-12-09T14:07:46.827Z,8.70
2018-12-09T14:10:14.349Z,8.70
2018-12-09T14:12:43.317Z,8.60
2018-12-09T14:15:10.764Z,8.60
2018-12-09T14:17:38.264Z,8.60
2018-12-09T14:20:06.541Z,8.60
2018-12-09T14:22:34.043Z,8.60
2018-12-09T14:25:02.279Z,8.60
2018-12-09T14:27:29.770Z,8.60
2018-12-09T14:29:57.985Z,8.60
2018-12-09T14:32:25.445Z,8.60
2018-12-09T14:34:53.041Z,8.60
2018-12-09T14:37:21.191Z,8.50
2018-12-09T14:39:48.703Z,8.50
2018-12-09T14:42:16.174Z,8.40
2018-12-09T14:44:44.438Z,8.40
2018-12-09T14:47:11.987Z,8.40
2018-12-09T14:49:39.439Z,8.40
2018-12-09T14:52:06.915Z,8.40
2018-12-09T14:54:34.381Z,8.40
2018-12-09T14:57:01.829Z,8.50
2018-12-09T14:59:29.295Z,8.50
2018-12-09T15:01:56.752Z,8.60
2018-12-09T15:04:24.220Z,8.60
2018-12-09T15:06:51.675Z,8.50
2018-12-09T15:09:19.119Z,8.20
2018-12-09T15:11:46.581Z,8.00
2018-12-09T15:14:14.300Z,7.90
2018-12-09T15:16:42.543Z,7.70
2018-12-09T15:19:10.025Z,7.70
2018-12-09T15:21:37.487Z,7.60
2018-12-09T15:24:06.441Z,7.50
2018-12-09T15:26:33.899Z,7.50
2018-12-09T15:29:01.416Z,7.50
2018-12-09T15:31:28.887Z,7.40
2018-12-09T15:33:57.102Z,7.50
2018-12-09T15:36:24.557Z,7.50
2018-12-09T15:38:52.047Z,7.60
2018-12-09T15:41:19.492Z,7.50
2018-12-09T15:43:46.950Z,7.50
2018-12-09T15:46:14.449Z,7.60
2018-12-09T15:48:41.925Z,7.50
2018-12-09T15:51:09.377Z,7.40
2018-12-09T15:53:36.945Z,7.50
2018-12-09T15:56:04.417Z,7.50
2018-12-09T15:58:32.684Z,7.50
2018-12-09T16:01:00.150Z,7.50
2018-12-09T16:03:27.610Z,7.50
2018-12-09T16:05:55.062Z,7.60
2018-12-09T16:08:22.514Z,7.60
2018-12-09T16:10:50.078Z,7.70
2018-12-09T16:13:17.521Z,7.70
2018-12-09T16:15:44.977Z,7.70
2018-12-09T16:18:12.434Z,7.70
2018-12-09T16:20:39.950Z,7.80
2018-12-09T16:23:07.401Z,7.80
2018-12-09T16:25:34.954Z,7.80
2018-12-09T16:28:02.414Z,7.90
2018-12-09T16:30:29.870Z,7.80
2018-12-09T16:32:57.448Z,7.80
2018-12-09T16:35:24.895Z,7.80
2018-12-09T16:37:52.348Z,7.80
2018-12-09T16:40:19.818Z,7.80
2018-12-09T16:42:47.282Z,7.80
2018-12-09T16:45:14.750Z,7.80
2018-12-09T16:47:42.190Z,7.80
2018-12-09T16:50:09.645Z,7.80
2018-12-09T16:52:37.101Z,7.80
2018-12-09T16:55:04.596Z,7.70
2018-12-09T16:57:32.063Z,7.70
2018-12-09T16:59:59.562Z,7.70
2018-12-09T17:02:27.789Z,7.80
2018-12-09T17:04:55.238Z,7.70
2018-12-09T17:07:22.704Z,7.80
2018-12-09T17:09:50.155Z,7.80
2018-12-09T17:12:17.615Z,7.90
2018-12-09T17:14:45.925Z,7.80
2018-12-09T17:17:13.490Z,7.80
2018-12-09T17:19:40.864Z,7.80
2018-12-09T17:22:08.330Z,7.70
2018-12-09T17:24:35.888Z,7.70
2018-12-09T17:27:04.054Z,7.70
2018-12-09T17:29:31.630Z,7.70
2018-12-09T17:31:59.090Z,7.60
2018-12-09T17:34:26.555Z,7.60
2018-12-09T17:36:54.027Z,7.50
2018-12-09T17:39:21.493Z,7.60
2018-12-09T17:41:48.993Z,7.60
2018-12-09T17:44:16.493Z,7.50
2018-12-09T17:46:44.043Z,7.60
2018-12-09T17:49:11.529Z,7.70
2018-12-09T17:51:39.001Z,7.70
2018-12-09T17:54:06.469Z,7.70
2018-12-09T17:56:33.918Z,7.80
2018-12-09T17:59:01.360Z,7.80
2018-12-09T18:01:28.825Z,7.70
2018-12-09T18:03:56.278Z,7.60
2018-12-09T18:06:23.750Z,7.50
2018-12-09T18:08:51.318Z,7.40
2018-12-09T18:11:18.772Z,7.30
2018-12-09T18:13:46.244Z,7.40
2018-12-09T18:16:13.801Z,7.40
2018-12-09T18:18:41.251Z,7.40
2018-12-09T18:21:08.844Z,7.50
2018-12-09T18:23:37.910Z,7.30
2018-12-09T18:26:05.414Z,7.20
2018-12-09T18:28:32.876Z,7.10
2018-12-09T18:31:00.352Z,7.00
2018-12-09T18:33:28.567Z,6.90
2018-12-09T18:35:56.064Z,6.90
2018-12-09T18:38:23.517Z,7.00
2018-12-09T18:40:50.973Z,7.10
2018-12-09T18:43:18.544Z,7.10
2018-12-09T18:45:46.004Z,7.10
2018-12-09T18:48:13.480Z,7.20
2018-12-09T18:50:40.924Z,7.20
2018-12-09T18:53:08.366Z,7.20
2018-12-09T18:55:35.835Z,7.30
2018-12-09T18:58:04.422Z,7.40
2018-12-09T19:00:31.898Z,7.40
2018-12-09T19:02:59.456Z,7.40
2018-12-09T19:05:26.904Z,7.40
2018-12-09T19:07:54.362Z,7.30
2018-12-09T19:10:21.850Z,7.10
2018-12-09T19:12:49.315Z,7.00
2018-12-09T19:15:16.785Z,6.90
2018-12-09T19:17:44.225Z,6.90
2018-12-09T19:20:11.798Z,7.00
2018-12-09T19:22:39.249Z,7.00
2018-12-09T19:25:06.721Z,7.00
2018-12-09T19:27:34.272Z,7.10
2018-12-09T19:30:01.718Z,7.00
2018-12-09T19:32:29.223Z,7.00
2018-12-09T19:34:56.682Z,7.00
2018-12-09T19:37:24.185Z,7.00
2018-12-09T19:39:51.699Z,7.00
2018-12-09T19:42:19.145Z,7.00
2018-12-09T19:44:46.615Z,7.00
2018-12-09T19:47:14.056Z,7.00
2018-12-09T19:49:41.545Z,7.20
2018-12-09T19:52:09.016Z,7.20
2018-12-09T19:54:38.011Z,7.30
2018-12-09T19:57:05.468Z,7.30
2018-12-09T19:59:33.017Z,7.30
2018-12-09T20:02:00.587Z,7.30
2018-12-09T20:04:28.051Z,7.10
2018-12-09T20:06:55.596Z,6.90
2018-12-09T20:09:22.969Z,6.80
2018-12-09T20:11:50.537Z,6.80
2018-12-09T20:14:18.001Z,6.80
2018-12-09T20:16:45.462Z,6.90
2018-12-09T20:19:12.925Z,7.00
2018-12-09T20:21:40.499Z,7.00
2018-12-09T20:24:09.492Z,7.10
2018-12-09T20:26:37.053Z,7.10
2018-12-09T20:29:04.523Z,7.20
2018-12-09T20:31:32.080Z,7.20
2018-12-09T20:33:59.531Z,7.40
2018-12-09T20:36:26.986Z,7.40
2018-12-09T20:38:54.458Z,7.40
2018-12-09T20:41:22.014Z,7.10
2018-12-09T20:43:49.475Z,6.70
2018-12-09T20:46:17.048Z,6.40
2018-12-09T20:48:44.515Z,6.40
2018-12-09T20:51:12.318Z,6.30
2018-12-09T20:53:39.850Z,6.40
2018-12-09T20:56:07.410Z,6.30
2018-12-09T20:58:34.868Z,6.30
2018-12-09T21:03:36.019Z,6.40
2018-12-09T21:06:04.473Z,6.40
2018-12-09T21:08:31.951Z,6.40
2018-12-09T21:10:59.442Z,6.40
2018-12-09T21:13:26.930Z,6.50
2018-12-09T21:15:54.385Z,6.60
2018-12-09T21:18:21.835Z,6.70
2018-12-09T21:20:49.291Z,6.70
2018-12-09T21:23:16.750Z,6.70
2018-12-09T21:25:44.217Z,6.70
2018-12-09T21:28:11.686Z,6.90
2018-12-09T21:30:39.153Z,6.90
2018-12-09T21:33:06.612Z,6.90
2018-12-09T21:35:34.083Z,6.90
2018-12-09T21:38:02.338Z,6.80
2018-12-09T21:40:29.809Z,6.80
2018-12-09T21:42:58.766Z,6.80
2018-12-09T21:45:26.243Z,6.80
2018-12-09T21:47:53.702Z,6.80
2018-12-09T21:50:21.167Z,6.90
2018-12-09T21:52:48.643Z,6.90
2018-12-09T21:55:16.198Z,6.90
2018-12-09T21:57:43.687Z,6.90
2018-12-09T22:00:11.161Z,6.90
2018-12-09T22:02:39.400Z,6.90
2018-12-09T22:05:06.856Z,6.90
2018-12-09T22:07:34.338Z,6.80
2018-12-09T22:10:01.903Z,6.90
2018-12-09T22:12:29.473Z,7.00
2018-12-09T22:14:57.095Z,7.00
2018-12-09T22:17:24.650Z,6.80
2018-12-09T22:19:52.864Z,6.60
2018-12-09T22:22:20.430Z,6.60
2018-12-09T22:24:47.997Z,6.50
2018-12-09T22:27:15.455Z,6.40
2018-12-09T22:29:42.906Z,6.50
2018-12-09T22:32:10.381Z,6.50
2018-12-09T22:34:37.945Z,6.70
2018-12-09T22:37:05.459Z,6.70
2018-12-09T22:39:32.906Z,6.70
2018-12-09T22:42:01.130Z,6.90
2018-12-09T22:44:28.613Z,6.80
2018-12-09T22:46:57.592Z,6.90
2018-12-09T22:49:25.078Z,6.90
2018-12-09T22:51:52.628Z,6.90
2018-12-09T22:54:20.102Z,7.00
2018-12-09T22:56:47.561Z,7.00
2018-12-09T22:59:15.040Z,7.00
2018-12-09T23:01:42.491Z,7.00
2018-12-09T23:04:10.046Z,6.90
2018-12-09T23:06:37.526Z,6.80
2018-12-09T23:09:04.983Z,6.60
2018-12-09T23:11:33.254Z,6.40
2018-12-09T23:14:00.794Z,6.40
2018-12-09T23:16:28.271Z,6.40
2018-12-09T23:18:55.721Z,6.30
2018-12-09T23:21:23.194Z,6.40
2018-12-09T23:23:50.657Z,6.50
2018-12-09T23:26:18.117Z,6.50
2018-12-09T23:28:45.572Z,6.00
2018-12-09T23:31:13.018Z,5.70
2018-12-09T23:33:40.492Z,5.60
2018-12-09T23:36:07.956Z,5.60
2018-12-09T23:38:36.559Z,5.50
2018-12-09T23:41:04.119Z,5.50
2018-12-09T23:43:31.668Z,5.50
2018-12-09T23:45:59.147Z,5.50
2018-12-09T23:48:26.714Z,5.50
2018-12-09T23:50:54.266Z,5.60
2018-12-09T23:53:21.733Z,5.70
2018-12-09T23:55:49.198Z,5.80
2018-12-09T23:58:16.656Z,5.90
